• Join FlightAware (Why Join?)
  • Login
  • US Flag 
06:57AM EST


 

Airport Tracker/Info


-or-


 

Live Flight TrackerFlight Track Log ✈ N2827N ✈ 04-Feb-2014 ✈ KPIE - KCAE

Flight Track Log - Related Links

Times and Time Zones

All times are in EST time to prevent confusion due to time zone crossing. See the N2827N flight status page for this flight to view local times or setup timezone preferences in your user account.

Time Position Orientation Groundspeed Altitude Reporting Facility
EST Latitude Longitude Course Direction KTS MPH feet Rate Location/Type
06:43AM 27.9500 -82.7000 360° North 114 131 1,000  Level Tampa TRACON
06:43AM 27.9667 -82.7000 360° North 117 135 1,500 660 Climbing Tampa TRACON
06:44AM 28.0000 -82.7000 360° North 127 146 2,200 600 Climbing Tampa TRACON
06:45AM 28.0333 -82.7000 360° North 127 146 2,800 600 Climbing Tampa TRACON
06:46AM 28.0833 -82.7000 360° North 139 160 3,400 600 Climbing Tampa TRACON
06:47AM 28.1167 -82.7000 360° North 137 158 4,000 600 Climbing Tampa TRACON
06:48AM 28.1500 -82.7000 360° North 135 155 4,600 600 Climbing Tampa TRACON
06:49AM 28.2000 -82.7000 360° North 136 157 5,300 600 Climbing Tampa TRACON
06:50AM 28.2333 -82.7000 360° North 141 162 5,800 420 Climbing Tampa TRACON
06:51AM 28.2667 -82.7000 360° North 142 163 6,100 120 Climbing Tampa TRACON
06:52AM 28.3167 -82.7000 360° North 162 186 6,100 300 Level Tampa TRACON
06:53AM 28.3667 -82.6833 16° North 165 190 6,800 600 Climbing Tampa TRACON
06:54AM 28.4003 -82.6803 North 161 185 7,300 480 Climbing Jacksonville Center
06:55AM 28.4106 -82.6803 360° North 160 184 7,400 480 Climbing Jacksonville Center
06:56AM 28.4544 -82.6753 North 156 180 8,000 300 Climbing Jacksonville Center
06:57AM 28.5044 -82.6728 North 161 185 8,100  Climbing Jacksonville Center
06:58AM 28.5525 -82.6706 North 177 204 8,000 -60 Descending Jacksonville Center
06:59AM 28.6089 -82.6678 North 182 209 8,000  Level Jacksonville Center
07:00AM 28.6611 -82.6631 North 174 200 8,000  Level Jacksonville Center
07:01AM 28.7111 -82.6631 360° North 181 208 8,100  Climbing Jacksonville Center
07:02AM 28.7611 -82.6606 North 184 212 8,000 -60 Descending Jacksonville Center
07:03AM 28.8092 -82.6603 360° North 183 211 8,000  Level Jacksonville Center
07:04AM 28.8592 -82.6556 North 179 206 8,000  Level Jacksonville Center
07:05AM 28.9072 -82.6553 360° North 179 206 8,000  Level Jacksonville Center
07:06AM 28.9614 -82.6506 North 180 207 8,000  Level Jacksonville Center
07:07AM 29.0117 -82.6481 North 179 206 8,000  Level Jacksonville Center
07:08AM 29.0617 -82.6431 North 178 205 8,000  Level Jacksonville Center
07:09AM 29.1097 -82.6453 358° North 177 204 8,000  Level Jacksonville Center
07:10AM 29.1619 -82.6381 North 178 205 8,000  Level Jacksonville Center
07:11AM 29.1994 -82.6333 North 178 205 8,000  Level Jacksonville Center
07:11AM 29.2100 -82.6333 360° North 177 204 8,000  Level Jacksonville Center
07:12AM 29.2494 -82.6283 North 178 205 8,000  Level Jacksonville Center
07:12AM 29.2578 -82.6283 360° North 177 204 8,000  Level Jacksonville Center
07:13AM 29.2975 -82.6306 357° North 178 205 8,000  Level Jacksonville Center
07:13AM 29.3081 -82.6353 339° North 181 208 8,000  Level Jacksonville Center
07:14AM 29.3497 -82.6306 North 178 205 8,000  Level Jacksonville Center
07:14AM 29.3603 -82.6306 360° North 179 206 8,000  Level Jacksonville Center
07:15AM 29.4125 -82.6303 360° North 178 205 8,000  Level Jacksonville Center
07:16AM 29.4458 -82.6278 North 178 205 8,000  Level Jacksonville Center
07:16AM 29.4603 -82.6278 360° North 177 204 8,000  Level Jacksonville Center
07:17AM 29.4939 -82.6253 North 178 205 8,000  Level Jacksonville Center
07:18AM 29.5439 -82.6206 North 185 213 8,000 -60 Level Jacksonville Center
07:19AM 29.5939 -82.6131 North 185 213 7,900  Descending Jacksonville Center
07:20AM 29.6419 -82.6106 North 180 207 8,000 60 Climbing Jacksonville Center
07:21AM 29.6900 -82.6081 North 180 207 8,100  Climbing Jacksonville Center
07:22AM 29.7422 -82.6031 North 180 207 8,100  Level Jacksonville Center
07:23AM 29.7881 -82.5958 North 180 207 8,100  Level Jacksonville Center
07:24AM 29.8361 -82.5956 360° North 175 201 8,100 -60 Level Jacksonville Center
07:25AM 29.8800 -82.5931 North 169 194 8,000 -60 Descending Jacksonville Center
07:26AM 29.9258 -82.5881 North 169 194 8,000  Level Jacksonville Center
07:27AM 29.9739 -82.5833 North 163 188 8,000  Level Jacksonville Center
07:28AM 30.0178 -82.5783 North 163 188 8,000  Level Jacksonville Center
07:29AM 30.0594 -82.5781 360° North 163 188 8,000  Level Jacksonville Center
07:30AM 30.1053 -82.5733 North 158 182 8,000  Level Jacksonville Center
07:31AM 30.1514 -82.5731 360° North 158 182 8,000  Level Jacksonville Center
07:32AM 30.1972 -82.5731 360° North 158 182 8,000  Level Jacksonville Center
07:33AM 30.2431 -82.5681 North 158 182 8,000  Level Jacksonville Center
07:34AM 30.2892 -82.5653 North 158 182 8,000  Level Jacksonville Center
07:35AM 30.3350 -82.5606 North 158 182 8,000  Level Jacksonville Center
07:36AM 30.3808 -82.5556 North 158 182 8,000  Level Jacksonville Center
07:37AM 30.4269 -82.5528 North 158 182 8,000  Level Jacksonville Center
07:38AM 30.4706 -82.5503 North 158 182 8,000  Level Jacksonville Center
07:39AM 30.5167 -82.5453 North 158 182 8,000  Level Jacksonville Center
07:40AM 30.5583 -82.5258 22° Northeast 158 182 8,000  Level Jacksonville Center
07:41AM 30.6042 -82.5089 18° North 164 189 8,000  Level Jacksonville Center
07:42AM 30.6458 -82.4942 17° North 164 189 8,000  Level Jacksonville Center
07:43AM 30.6917 -82.4747 20° North 164 189 8,000  Level Jacksonville Center
07:44AM 30.7375 -82.4550 20° North 164 189 8,000  Level Jacksonville Center
07:45AM 30.7814 -82.4381 18° North 164 189 8,000  Level Jacksonville Center
07:46AM 30.8272 -82.4233 15° North 164 189 8,000  Level Jacksonville Center
07:47AM 30.8731 -82.4036 20° North 164 189 8,000 240 Level Jacksonville Center
07:48AM 30.9169 -82.3889 16° North 164 189 8,500 420 Climbing Jacksonville Center
07:49AM 30.9608 -82.3717 19° North 164 189 8,900 300 Climbing Jacksonville Center
07:50AM 31.0025 -82.3544 20° North 158 182 9,100 60 Climbing Jacksonville Center
07:51AM 31.0461 -82.3350 21° North 158 182 9,100  Level Jacksonville Center
07:52AM 31.0919 -82.3200 16° North 169 194 9,100 -60 Level Jacksonville Center
07:53AM 31.1378 -82.2978 23° Northeast 169 194 9,000 -60 Descending Jacksonville Center
07:54AM 31.1817 -82.2758 23° Northeast 169 194 9,000  Level Jacksonville Center
07:55AM 31.2275 -82.2561 20° North 169 194 9,000  Level Jacksonville Center
07:56AM 31.2733 -82.2364 20° North 169 194 9,100  Climbing Jacksonville Center
07:57AM 31.3211 -82.2164 20° North 169 194 9,000 -60 Descending Jacksonville Center
07:58AM 31.3669 -82.1967 20° North 169 194 9,000  Level Jacksonville Center
07:59AM 31.4150 -82.1744 22° Northeast 175 201 9,000  Level Jacksonville Center
08:00AM 31.4650 -82.1522 21° North 175 201 9,000  Level Jacksonville Center
08:01AM 31.5108 -82.1322 20° North 174 200 9,100  Climbing Jacksonville Center
08:02AM 31.5586 -82.1147 17° North 169 194 9,100  Level Jacksonville Center
08:03AM 31.6025 -82.0972 19° North 169 194 9,100  Level Jacksonville Center
08:04AM 31.6483 -82.0822 16° North 169 194 9,100 -60 Level Jacksonville Center
08:05AM 31.7044 -82.0622 17° North 174 200 9,000 -60 Descending Jacksonville Center
08:06AM 31.7525 -82.0472 15° North 186 214 9,000  Level Jacksonville Center
08:07AM 31.8025 -82.0297 17° North 186 214 9,000  Level Jacksonville Center
08:08AM 31.8483 -82.0144 16° North 184 212 9,000 -60 Level Jacksonville Center
08:09AM 31.8961 -81.9969 17° North 184 212 8,900 -60 Descending Jacksonville Center
08:10AM 31.9503 -81.9744 19° North 184 212 8,900  Level Jacksonville Center
08:11AM 32.0003 -81.9542 19° North 184 212 8,900  Level Jacksonville Center
08:12AM 32.0503 -81.9367 17° North 189 217 8,900  Level Jacksonville Center
08:13AM 32.0939 -81.9167 21° North 184 212 9,000  Climbing Jacksonville Center
08:14AM 32.1417 -81.8989 17° North 184 212 9,000  Level Jacksonville Center
08:15AM 32.1958 -81.8739 21° North 179 206 9,100  Climbing Jacksonville Center
08:16AM 32.2458 -81.8561 17° North 184 212 9,000 -60 Descending Jacksonville Center
08:17AM 32.2894 -81.8358 21° North 184 212 9,000  Level Jacksonville Center
08:18AM 32.3372 -81.8181 17° North 184 212 9,000  Level Jacksonville Center
08:19AM 32.3914 -81.7978 18° North 184 212 9,000  Level Jacksonville Center
08:20AM 32.4392 -81.7775 20° North 184 212 9,000  Level Jacksonville Center
08:21AM 32.4872 -81.7597 17° North 184 212 9,000  Level Jacksonville Center
08:22AM 32.5308 -81.7419 19° North 179 206 9,000  Level Jacksonville Center
08:23AM 32.5786 -81.7192 22° Northeast 179 206 9,000  Level Jacksonville Center
08:24AM 32.6306 -81.6961 20° North 184 212 9,000  Level Jacksonville Center
08:25AM 32.6783 -81.6758 20° North 184 212 9,000  Level Jacksonville Center
08:26AM 32.7303 -81.6528 20° North 184 212 9,000  Level Jacksonville Center
08:27AM 32.7781 -81.6300 22° Northeast 184 212 9,000  Level Jacksonville Center
08:29AM 32.9008 -81.5789 19° North 190 219 9,100  Climbing Jacksonville Center
08:30AM 32.9486 -81.5558 22° Northeast 190 219 9,000 -120 Descending Jacksonville Center
08:31AM 32.9964 -81.5353 20° North 190 219 8,900  Descending Jacksonville Center
08:32AM 33.0461 -81.5122 21° North 185 213 9,000  Climbing Jacksonville Center
08:33AM 33.0919 -81.4892 23° Northeast 185 213 9,000  Level Jacksonville Center
08:34AM 33.1397 -81.4661 22° Northeast 185 213 9,100  Climbing Jacksonville Center
08:35AM 33.1853 -81.4431 23° Northeast 185 213 9,100  Level Jacksonville Center
08:36AM 33.2350 -81.4125 27° Northeast 185 213 9,100  Level Jacksonville Center
08:37AM 33.2828 -81.3819 28° Northeast 185 213 9,100 -60 Level Jacksonville Center
08:38AM 33.3178 -81.3489 38° Northeast 185 213 9,000 -180 Descending Jacksonville Center
08:39AM 33.3653 -81.3108 34° Northeast 192 221 8,800 -360 Descending Jacksonville Center
08:40AM 33.4128 -81.2728 34° Northeast 192 221 8,300 -600 Descending Jacksonville Center
08:41AM 33.4583 -81.2344 35° Northeast 192 221 7,700 -660 Descending Jacksonville Center
08:42AM 33.5103 -81.2261 North 186 214 7,000 -600 Descending Jacksonville Center
08:43AM 33.5606 -81.2375 349° North 178 205 6,500 -600 Descending Jacksonville Center
08:44AM 33.6108 -81.2492 349° North 178 205 5,800 -720 Descending Jacksonville Center